Time;durP1;ratioP1;P1;durP2;ratioP2;P2;SDS_P1;SDS_P2;PMS_P1;PMS_P2;Temp;Humidity;BMP_temperature;BMP_pressure;BME280_temperature;BME280_humidity;BME280_pressure;Samples;Min_cycle;Max_cycle;Signal;HPM_P1;HPM_P2
2022/04/29 00:00:34;;;;;;;10.30;8.77;;;;;;;11.25;50.44;96385.97;5031085;28;20037;-65
2022/04/29 00:03:02;;;;;;;9.68;8.63;;;;;;;11.21;50.34;96368.97;5031114;28;20805;-65
2022/04/29 00:05:29;;;;;;;9.43;8.43;;;;;;;11.20;50.34;96375.34;5030900;28;20080;-65
2022/04/29 00:07:56;;;;;;;10.02;9.10;;;;;;;11.15;50.33;96364.72;5031021;28;20029;-65
2022/04/29 00:10:23;;;;;;;10.82;9.00;;;;;;;11.12;50.84;96381.28;5031093;28;20083;-65
2022/04/29 00:12:50;;;;;;;10.38;9.30;;;;;;;11.07;51.10;96368.78;5030874;28;20037;-65
2022/04/29 00:15:18;;;;;;;10.68;9.35;;;;;;;11.05;50.60;96375.44;5030820;28;20037;-65
2022/04/29 00:17:45;;;;;;;11.20;8.93;;;;;;;10.97;50.58;96358.22;5030697;28;20038;-65
2022/04/29 00:20:14;;;;;;;10.18;9.18;;;;;;;10.96;51.26;96364.63;5031023;28;20036;-65
2022/04/29 00:22:41;;;;;;;9.85;8.73;;;;;;;10.86;50.95;96356.69;5030836;28;20420;-65
2022/04/29 00:25:10;;;;;;;11.02;9.93;;;;;;;10.87;51.06;96364.38;5030937;28;20578;-65
2022/04/29 00:27:40;;;;;;;10.57;9.68;;;;;;;10.79;52.07;96366.81;5030745;28;20470;-65
2022/04/29 00:30:11;;;;;;;9.00;8.15;;;;;;;10.81;51.56;96360.16;5030193;28;20036;-66
2022/04/29 00:32:39;;;;;;;11.38;9.50;;;;;;;10.83;52.09;96363.34;5030665;28;20381;-65
2022/04/29 00:35:09;;;;;;;10.60;8.75;;;;;;;10.77;52.00;96359.13;5030493;28;20033;-65
2022/04/29 00:38:05;;;;;;;11.02;9.98;;;;;;;10.81;51.70;96354.06;5030345;28;20029;-65
2022/04/29 00:40:32;;;;;;;14.57;10.15;;;;;;;10.75;52.31;96349.81;5030093;28;20393;-65
2022/04/29 00:43:00;;;;;;;11.02;9.02;;;;;;;10.72;51.77;96342.41;5030610;28;20029;-65
2022/04/29 00:45:27;;;;;;;9.88;8.98;;;;;;;10.67;51.81;96336.03;5030685;28;20083;-66
2022/04/29 00:47:55;;;;;;;10.65;9.65;;;;;;;10.72;52.01;96342.41;5030481;28;20056;-65
2022/04/29 00:50:28;;;;;;;11.02;9.93;;;;;;;10.75;51.80;96350.63;5030304;28;20113;-65
2022/04/29 00:52:59;;;;;;;11.02;10.00;;;;;;;10.65;52.43;96338.19;5030377;28;20044;-65
2022/04/29 00:55:26;;;;;;;11.68;9.38;;;;;;;10.50;52.28;96316.19;5030471;28;20032;-65
2022/04/29 00:57:55;;;;;;;10.50;9.40;;;;;;;10.64;52.11;96333.09;5030146;28;20026;-65
2022/04/29 01:00:22;;;;;;;10.48;9.52;;;;;;;10.52;53.08;96330.00;5029691;28;20477;-66
2022/04/29 01:02:52;;;;;;;13.15;10.07;;;;;;;10.60;52.74;96335.53;5030331;28;20033;-65
2022/04/29 01:05:21;;;;;;;11.65;9.10;;;;;;;10.57;52.84;96336.06;5030386;28;20049;-65
2022/04/29 01:07:49;;;;;;;11.90;10.80;;;;;;;10.35;53.18;96287.78;5030123;28;20037;-65
2022/04/29 01:10:20;;;;;;;12.63;11.35;;;;;;;10.53;52.83;96318.28;5029512;28;20040;-65
2022/04/29 01:12:50;;;;;;;11.20;9.90;;;;;;;10.46;53.14;96305.28;5030167;28;20108;-65
2022/04/29 01:15:18;;;;;;;10.38;9.35;;;;;;;10.49;52.82;96307.38;5029950;28;20029;-65
2022/04/29 01:17:47;;;;;;;15.93;10.00;;;;;;;10.23;52.66;96281.94;5030153;28;20109;-65
2022/04/29 01:20:17;;;;;;;13.88;11.10;;;;;;;10.45;53.16;96313.53;5029922;28;20481;-65
2022/04/29 01:22:45;;;;;;;11.30;10.20;;;;;;;10.41;53.50;96313.28;5029760;28;20056;-65
2022/04/29 01:25:13;;;;;;;11.77;10.30;;;;;;;10.38;53.20;96309.28;5030130;28;20230;-65
2022/04/29 01:27:40;;;;;;;15.20;10.00;;;;;;;10.38;52.91;96314.63;5029866;28;20029;-65
2022/04/29 01:30:16;;;;;;;16.83;11.50;;;;;;;10.34;53.34;96304.81;5029419;28;20029;-65
2022/04/29 01:32:43;;;;;;;12.32;11.02;;;;;;;10.35;53.44;96320.50;5029929;28;20030;-65
2022/04/29 01:35:11;;;;;;;14.48;10.30;;;;;;;10.21;53.81;96313.34;5030019;28;20037;-65
2022/04/29 01:37:39;;;;;;;13.82;10.25;;;;;;;10.13;53.35;96296.91;5029701;28;20029;-65
2022/04/29 01:40:09;;;;;;;12.00;9.55;;;;;;;10.23;53.87;96308.53;5029543;28;20466;-65
2022/04/29 01:42:37;;;;;;;12.82;11.63;;;;;;;10.27;53.97;96321.06;5029902;28;20026;-65
2022/04/29 01:45:06;;;;;;;13.93;10.35;;;;;;;10.11;53.49;96293.72;5029582;28;20079;-65
2022/04/29 01:47:33;;;;;;;12.02;10.70;;;;;;;10.20;53.61;96307.25;5029795;28;20452;-65
2022/04/29 01:49:59;;;;;;;12.50;11.30;;;;;;;10.23;53.56;96316.53;5029594;28;20085;-65
2022/04/29 01:52:26;;;;;;;13.40;10.82;;;;;;;10.11;54.20;96309.66;5029551;28;20469;-65
2022/04/29 01:54:53;;;;;;;11.98;10.75;;;;;;;10.14;54.31;96293.19;5029417;28;20043;-65
2022/04/29 01:57:20;;;;;;;13.23;11.98;;;;;;;10.22;53.66;96304.28;5029612;28;20032;-65
2022/04/29 01:59:47;;;;;;;15.70;12.95;;;;;;;10.19;53.94;96304.88;5029573;28;20478;-65
2022/04/29 02:02:14;;;;;;;13.52;11.95;;;;;;;10.13;53.45;96296.91;5029071;28;20112;-65
2022/04/29 02:04:41;;;;;;;14.00;11.07;;;;;;;10.11;53.94;96304.34;5029752;28;20041;-66
2022/04/29 02:07:08;;;;;;;12.48;11.18;;;;;;;10.10;54.52;96301.97;5029624;28;20068;-66
2022/04/29 02:09:34;;;;;;;14.60;11.25;;;;;;;10.07;54.43;96297.97;5029580;28;20037;-65
2022/04/29 02:12:04;;;;;;;12.18;11.07;;;;;;;10.06;53.97;96296.38;5029731;28;20481;-65
2022/04/29 02:15:21;;;;;;;12.82;11.52;;;;;;;10.02;54.13;96294.53;5029713;28;20528;-65
2022/04/29 02:18:37;;;;;;;10.82;9.60;;;;;;;9.86;55.24;96294.59;5029725;28;20032;-65
2022/04/29 02:21:52;;;;;;;12.18;10.45;;;;;;;9.92;54.44;96289.25;5031960;28;20037;-64
2022/04/29 02:25:09;;;;;;;12.30;10.30;;;;;;;9.93;54.36;96283.69;5033204;28;20331;-65
2022/04/29 02:28:24;;;;;;;10.95;9.93;;;;;;;9.86;54.70;96291.13;5032813;28;20026;-65
2022/04/29 02:31:41;;;;;;;16.10;11.05;;;;;;;9.88;54.98;96289.81;5032550;28;20033;-66
2022/04/29 02:34:58;;;;;;;14.00;10.48;;;;;;;9.89;54.22;96282.63;5032857;28;20044;-65
2022/04/29 02:38:13;;;;;;;13.00;11.68;;;;;;;9.84;54.24;96287.97;5032774;28;20075;-65
2022/04/29 02:41:29;;;;;;;13.35;11.27;;;;;;;9.78;54.89;96284.53;5031505;28;20076;-65
2022/04/29 02:44:45;;;;;;;14.00;10.73;;;;;;;9.74;54.48;96275.50;5032470;28;20039;-65
2022/04/29 02:48:03;;;;;;;11.40;10.30;;;;;;;9.73;54.84;96278.44;5032781;28;20025;-65
2022/04/29 02:51:19;;;;;;;13.70;12.50;;;;;;;9.70;54.49;96282.41;5031674;28;20493;-65
2022/04/29 02:54:35;;;;;;;17.20;13.82;;;;;;;9.65;54.59;96274.47;5032504;28;20033;-65
2022/04/29 02:57:52;;;;;;;16.00;11.55;;;;;;;9.61;54.49;96265.44;5032470;28;20444;-65
2022/04/29 03:01:07;;;;;;;12.68;11.30;;;;;;;9.55;54.88;96263.84;5032450;28;20471;-65
2022/04/29 03:04:23;;;;;;;13.68;12.30;;;;;;;9.51;55.08;96257.50;5032163;28;20104;-65
2022/04/29 03:07:39;;;;;;;15.45;11.80;;;;;;;9.51;54.69;96252.97;5032501;28;20484;-65
2022/04/29 03:10:56;;;;;;;16.85;13.18;;;;;;;9.46;54.62;96249.53;5032444;28;20041;-65
2022/04/29 03:14:11;;;;;;;16.60;13.10;;;;;;;9.40;54.91;96250.63;5032251;28;20037;-65
2022/04/29 03:21:03;;;;;;;18.45;13.27;;;;;;;9.28;54.83;96243.72;5031915;28;20052;-65
2022/04/29 03:24:18;;;;;;;15.57;13.15;;;;;;;9.24;55.09;96247.19;5032180;28;20041;-65
2022/04/29 03:27:35;;;;;;;16.55;14.05;;;;;;;9.21;55.11;96243.19;5032058;28;20045;-64
2022/04/29 03:30:50;;;;;;;17.15;13.77;;;;;;;9.18;55.11;96241.09;5032009;28;20029;-65
2022/04/29 03:34:07;;;;;;;20.02;15.02;;;;;;;9.14;55.15;96241.91;5031427;28;20040;-65
2022/04/29 03:37:22;;;;;;;18.10;14.23;;;;;;;9.09;55.41;96248.00;5031837;28;20040;-65
2022/04/29 03:40:39;;;;;;;14.38;12.95;;;;;;;9.04;55.59;96250.66;5031856;28;20055;-65
2022/04/29 03:43:54;;;;;;;18.58;14.60;;;;;;;9.01;55.42;96249.34;5031598;28;20444;-65
2022/04/29 03:47:11;;;;;;;21.55;15.18;;;;;;;9.00;55.45;96245.06;5031978;28;20029;-65
2022/04/29 03:50:28;;;;;;;18.10;14.18;;;;;;;8.99;55.59;96250.66;5031460;28;20041;-65
2022/04/29 03:53:44;;;;;;;18.45;13.75;;;;;;;8.98;55.50;96249.06;5031010;28;20191;-64
2022/04/29 03:57:00;;;;;;;17.88;13.52;;;;;;;8.95;55.59;96247.72;5031403;28;20025;-65
2022/04/29 04:00:16;;;;;;;15.77;14.15;;;;;;;8.95;55.66;96249.59;5031067;28;20068;-65
2022/04/29 04:03:32;;;;;;;18.58;15.73;;;;;;;8.98;55.76;96238.47;5031381;28;20096;-65
2022/04/29 04:06:51;;;;;;;14.10;11.25;;;;;;;8.97;56.01;96250.13;5031098;28;20101;-65
2022/04/29 04:10:06;;;;;;;19.75;12.95;;;;;;;9.01;55.42;96243.25;5030994;28;20371;-65
